createdAt,value
2023-04-27T00:02:17.238Z,13.80
2023-04-27T00:04:45.461Z,13.80
2023-04-27T00:07:13.418Z,13.80
2023-04-27T00:09:41.262Z,13.80
2023-04-27T00:12:09.158Z,13.80
2023-04-27T00:14:38.312Z,13.70
2023-04-27T00:17:06.170Z,13.70
2023-04-27T00:19:34.699Z,13.70
2023-04-27T00:22:02.549Z,13.70
2023-04-27T00:24:30.476Z,13.60
2023-04-27T00:26:58.446Z,13.60
2023-04-27T00:29:26.370Z,13.60
2023-04-27T00:31:55.785Z,13.60
2023-04-27T00:34:23.706Z,13.50
2023-04-27T00:36:51.599Z,13.50
2023-04-27T00:39:21.624Z,13.50
2023-04-27T00:41:49.464Z,13.50
2023-04-27T00:44:24.677Z,13.40
2023-04-27T00:46:53.501Z,13.40
2023-04-27T00:49:24.431Z,13.40
2023-04-27T00:51:52.474Z,13.40
2023-04-27T00:54:22.098Z,13.40
2023-04-27T00:56:51.582Z,13.30
2023-04-27T00:59:20.247Z,13.30
2023-04-27T01:01:48.737Z,13.30
2023-04-27T01:04:17.940Z,13.30
2023-04-27T01:06:47.645Z,13.30
2023-04-27T01:09:16.463Z,13.20
2023-04-27T01:11:44.368Z,13.20
2023-04-27T01:14:12.255Z,13.20
2023-04-27T01:16:40.594Z,13.20
2023-04-27T01:19:11.074Z,13.10
2023-04-27T01:21:39.283Z,13.10
2023-04-27T01:24:10.158Z,13.10
2023-04-27T01:26:38.969Z,13.10
2023-04-27T01:29:06.876Z,13.10
2023-04-27T01:31:34.799Z,13.10
2023-04-27T01:34:02.703Z,13.00
2023-04-27T01:36:31.794Z,13.00
2023-04-27T01:38:59.679Z,13.00
2023-04-27T01:41:28.880Z,13.00
2023-04-27T01:43:56.817Z,13.00
2023-04-27T01:46:24.714Z,12.90
2023-04-27T01:48:52.599Z,12.90
2023-04-27T01:51:20.570Z,12.90
2023-04-27T01:53:48.570Z,12.90
2023-04-27T01:56:17.617Z,12.90
2023-04-27T01:58:47.096Z,12.80
2023-04-27T02:01:14.998Z,12.80
2023-04-27T02:03:43.129Z,12.80
2023-04-27T02:06:11.175Z,12.80
2023-04-27T02:08:40.636Z,12.80
2023-04-27T02:11:09.998Z,12.80
2023-04-27T02:13:37.930Z,12.70
2023-04-27T02:16:08.363Z,12.70
2023-04-27T02:18:36.299Z,12.70
2023-04-27T02:21:10.603Z,12.70
2023-04-27T02:23:38.606Z,12.70
2023-04-27T02:26:06.858Z,12.70
2023-04-27T02:28:34.724Z,12.60
2023-04-27T02:31:03.199Z,12.60
2023-04-27T02:33:32.946Z,12.60
2023-04-27T02:36:00.880Z,12.60
2023-04-27T02:38:30.941Z,12.60
2023-04-27T02:40:58.778Z,12.60
2023-04-27T02:43:27.435Z,12.50
2023-04-27T02:45:55.408Z,12.50
2023-04-27T02:48:23.281Z,12.50
2023-04-27T02:50:52.466Z,12.50
2023-04-27T02:53:20.316Z,12.50
2023-04-27T02:55:49.033Z,12.40
2023-04-27T02:58:17.462Z,12.40
2023-04-27T03:00:45.480Z,12.40
2023-04-27T03:03:13.696Z,12.40
2023-04-27T03:05:41.701Z,12.40
2023-04-27T03:08:11.288Z,12.40
2023-04-27T03:10:39.168Z,12.30
2023-04-27T03:13:07.521Z,12.40
2023-04-27T03:15:36.297Z,12.30
2023-04-27T03:18:04.983Z,12.30
2023-04-27T03:20:33.049Z,12.30
2023-04-27T03:23:01.412Z,12.30
2023-04-27T03:25:30.644Z,12.30
2023-04-27T03:27:58.513Z,12.20
2023-04-27T03:30:26.373Z,12.30
2023-04-27T03:32:54.560Z,12.20
2023-04-27T03:35:22.594Z,12.20
2023-04-27T03:37:50.438Z,12.20
2023-04-27T03:40:18.398Z,12.20
2023-04-27T03:42:47.624Z,12.20
2023-04-27T03:45:16.674Z,12.10
2023-04-27T03:47:44.621Z,12.20
2023-04-27T03:50:12.544Z,12.20
2023-04-27T03:52:40.410Z,12.10
2023-04-27T03:55:09.227Z,12.10
2023-04-27T03:57:37.142Z,12.10
2023-04-27T04:00:11.474Z,12.10
2023-04-27T04:02:40.868Z,12.10
2023-04-27T04:05:09.949Z,12.10
2023-04-27T04:07:37.913Z,12.10
2023-04-27T04:10:07.425Z,12.10
2023-04-27T04:12:35.337Z,12.00
2023-04-27T04:15:03.814Z,12.00
2023-04-27T04:17:34.144Z,12.00
2023-04-27T04:20:06.968Z,12.00
2023-04-27T04:22:34.850Z,12.00
2023-04-27T04:25:03.766Z,12.00
2023-04-27T04:27:33.481Z,12.00
2023-04-27T04:30:01.866Z,12.00
2023-04-27T04:32:30.526Z,12.00
2023-04-27T04:35:01.398Z,12.00
2023-04-27T04:37:30.403Z,12.00
2023-04-27T04:39:58.305Z,12.00
2023-04-27T04:42:27.654Z,12.00
2023-04-27T04:44:55.597Z,12.00
2023-04-27T04:47:23.500Z,12.00
2023-04-27T04:49:53.342Z,12.00
2023-04-27T04:52:22.700Z,12.00
2023-04-27T04:54:52.806Z,12.00
2023-04-27T04:57:22.246Z,12.00
2023-04-27T04:59:50.226Z,12.00
2023-04-27T05:02:18.166Z,12.00
2023-04-27T05:04:46.332Z,12.00
2023-04-27T05:07:15.292Z,12.00
2023-04-27T05:09:45.532Z,12.00
2023-04-27T05:12:13.382Z,12.00
2023-04-27T05:14:41.350Z,12.00
2023-04-27T05:17:09.190Z,12.00
2023-04-27T05:19:37.080Z,12.00
2023-04-27T05:22:04.937Z,12.00
2023-04-27T05:24:33.842Z,12.00
2023-04-27T05:27:03.529Z,12.00
2023-04-27T05:29:31.370Z,12.00
2023-04-27T05:31:59.503Z,12.00
2023-04-27T05:34:27.419Z,12.00
2023-04-27T05:36:55.332Z,12.00
2023-04-27T05:39:23.168Z,12.00
2023-04-27T05:41:51.668Z,12.00
2023-04-27T05:44:20.935Z,12.10
2023-04-27T05:46:48.835Z,12.10
2023-04-27T05:49:16.678Z,12.10
2023-04-27T05:51:44.620Z,12.10
2023-04-27T05:54:12.671Z,12.10
2023-04-27T05:56:40.527Z,12.10
2023-04-27T05:59:08.669Z,12.20
2023-04-27T06:01:38.183Z,12.20
2023-04-27T06:04:06.271Z,12.20
2023-04-27T06:06:34.361Z,12.30
2023-04-27T06:09:02.277Z,12.30
2023-04-27T06:11:30.263Z,12.30
2023-04-27T06:13:58.300Z,12.40
2023-04-27T06:16:26.309Z,12.40
2023-04-27T06:18:55.505Z,12.40
2023-04-27T06:21:23.598Z,12.50
2023-04-27T06:23:51.472Z,12.50
2023-04-27T06:26:19.286Z,12.60
2023-04-27T06:28:47.672Z,12.60
2023-04-27T06:31:15.657Z,12.70
2023-04-27T06:33:43.490Z,12.70
2023-04-27T06:36:12.794Z,12.80
2023-04-27T06:38:41.010Z,12.80
2023-04-27T06:41:08.882Z,12.90
2023-04-27T06:43:36.956Z,13.00
2023-04-27T06:46:05.729Z,13.00
2023-04-27T06:48:33.616Z,13.10
2023-04-27T06:51:01.582Z,13.10
2023-04-27T06:53:32.023Z,13.20
2023-04-27T06:56:00.144Z,13.30
2023-04-27T06:58:28.140Z,13.30
2023-04-27T07:00:56.129Z,13.40
2023-04-27T07:03:24.201Z,13.50
2023-04-27T07:05:52.153Z,13.60
2023-04-27T07:08:20.033Z,13.70
2023-04-27T07:10:49.208Z,13.80
2023-04-27T07:13:17.175Z,13.90
2023-04-27T07:15:45.111Z,14.10
2023-04-27T07:18:13.135Z,14.20
2023-04-27T07:20:43.176Z,14.30
2023-04-27T07:23:11.110Z,14.40
2023-04-27T07:25:40.193Z,14.60
2023-04-27T07:28:09.878Z,14.70
2023-04-27T07:30:38.073Z,14.90
2023-04-27T07:33:07.093Z,15.00
2023-04-27T07:35:35.233Z,15.20
2023-04-27T07:38:03.645Z,15.40
2023-04-27T07:40:32.728Z,15.50
2023-04-27T07:43:01.090Z,15.70
2023-04-27T07:45:32.780Z,15.90
2023-04-27T07:48:02.882Z,16.10
2023-04-27T07:50:31.679Z,16.20
2023-04-27T07:53:00.448Z,16.30
2023-04-27T07:55:28.986Z,16.50
2023-04-27T07:57:57.961Z,16.50
2023-04-27T08:00:26.460Z,16.60
2023-04-27T08:02:56.640Z,16.70
2023-04-27T08:05:25.008Z,16.80
2023-04-27T08:07:54.598Z,16.90
2023-04-27T08:10:23.356Z,17.00
2023-04-27T08:12:51.446Z,17.10
2023-04-27T08:15:19.384Z,17.10
2023-04-27T08:17:47.359Z,17.20
2023-04-27T08:20:16.817Z,17.30
2023-04-27T08:22:45.387Z,17.40
2023-04-27T08:25:13.364Z,17.60
2023-04-27T08:27:41.838Z,17.70
2023-04-27T08:30:11.214Z,17.80
2023-04-27T08:32:40.048Z,17.90
2023-04-27T08:35:08.505Z,18.00
2023-04-27T08:37:37.788Z,18.10
2023-04-27T08:40:08.200Z,18.20
2023-04-27T08:42:36.376Z,18.20
2023-04-27T08:45:08.348Z,18.30
2023-04-27T08:47:42.657Z,18.40
2023-04-27T08:50:12.541Z,18.40
2023-04-27T08:52:44.435Z,18.50
2023-04-27T08:55:13.328Z,18.50
2023-04-27T08:57:42.966Z,18.50
2023-04-27T09:00:13.338Z,18.60
2023-04-27T09:02:47.200Z,18.60
2023-04-27T09:05:19.237Z,18.60
2023-04-27T09:08:05.056Z,18.60
2023-04-27T09:10:45.909Z,18.60
2023-04-27T09:13:14.031Z,18.60
2023-04-27T09:15:48.681Z,18.60
2023-04-27T09:18:21.080Z,18.60
2023-04-27T09:20:51.220Z,18.50
2023-04-27T09:23:31.613Z,18.50
2023-04-27T09:26:02.035Z,18.50
2023-04-27T09:28:32.256Z,18.50
2023-04-27T09:31:02.481Z,18.40
2023-04-27T09:33:32.972Z,18.40
2023-04-27T09:36:06.292Z,18.40
2023-04-27T09:38:35.901Z,18.40
2023-04-27T09:41:04.458Z,18.40
2023-04-27T09:43:33.113Z,18.30
2023-04-27T09:46:01.573Z,18.30
2023-04-27T09:48:29.605Z,18.30
2023-04-27T09:50:57.654Z,18.30
2023-04-27T09:53:33.651Z,18.20
2023-04-27T09:56:28.349Z,18.20
2023-04-27T09:59:37.154Z,18.20
2023-04-27T10:02:20.991Z,18.20
2023-04-27T10:05:23.490Z,18.10
2023-04-27T10:07:53.732Z,18.10
2023-04-27T10:10:21.575Z,18.10
2023-04-27T10:13:01.923Z,18.10
2023-04-27T10:15:31.032Z,18.10
2023-04-27T10:18:06.134Z,18.00
2023-04-27T10:20:37.084Z,18.10
2023-04-27T10:23:05.614Z,18.10
2023-04-27T10:25:40.473Z,18.10
2023-04-27T10:28:16.711Z,18.00
2023-04-27T10:30:48.392Z,18.10
2023-04-27T10:33:20.035Z,18.10
2023-04-27T10:35:57.621Z,18.00
2023-04-27T10:38:30.778Z,18.00
2023-04-27T10:41:02.179Z,18.00
2023-04-27T10:43:34.687Z,18.00
2023-04-27T10:46:14.220Z,18.00
2023-04-27T10:48:43.385Z,18.00
2023-04-27T10:51:11.667Z,18.00
2023-04-27T10:53:39.551Z,18.00
2023-04-27T10:56:08.069Z,18.00
2023-04-27T11:01:10.202Z,18.00
2023-04-27T11:03:38.920Z,18.00
2023-04-27T11:06:07.619Z,18.00
2023-04-27T11:08:45.396Z,17.90
2023-04-27T11:11:17.250Z,18.00
2023-04-27T11:13:49.803Z,17.90
2023-04-27T11:16:19.351Z,18.00
2023-04-27T11:18:47.337Z,18.00
2023-04-27T11:21:18.527Z,17.90
2023-04-27T11:23:46.342Z,18.00
2023-04-27T11:26:16.313Z,18.00
2023-04-27T11:28:46.817Z,18.00
2023-04-27T11:31:14.865Z,18.00
2023-04-27T11:33:49.935Z,17.90
2023-04-27T11:36:18.708Z,18.00
2023-04-27T11:38:46.855Z,17.90
2023-04-27T11:41:14.885Z,17.90
2023-04-27T11:43:46.224Z,17.90
2023-04-27T11:46:15.663Z,17.90
2023-04-27T11:48:43.530Z,17.90
2023-04-27T11:51:13.128Z,17.90
2023-04-27T11:53:42.837Z,18.00
2023-04-27T11:56:12.134Z,17.90
2023-04-27T11:58:41.104Z,18.00
2023-04-27T12:01:10.121Z,18.00
2023-04-27T12:03:39.870Z,18.00
2023-04-27T12:06:27.566Z,18.00
2023-04-27T12:08:56.975Z,18.00
2023-04-27T12:11:26.783Z,17.90
2023-04-27T12:13:55.050Z,18.00
2023-04-27T12:16:23.336Z,17.90
2023-04-27T12:18:52.662Z,17.90
2023-04-27T12:21:21.242Z,17.90
2023-04-27T12:23:49.375Z,17.90
2023-04-27T12:26:17.238Z,17.90
2023-04-27T12:28:45.180Z,17.90
2023-04-27T12:31:18.663Z,17.90
2023-04-27T12:33:46.831Z,17.90
2023-04-27T12:36:16.285Z,17.90
2023-04-27T12:38:44.461Z,17.90
2023-04-27T12:41:12.341Z,17.90
2023-04-27T12:43:41.189Z,18.00
2023-04-27T12:46:09.148Z,18.00
2023-04-27T12:48:37.076Z,18.00
2023-04-27T12:51:06.615Z,18.00
2023-04-27T12:53:35.834Z,17.90
2023-04-27T12:56:05.246Z,17.90
2023-04-27T12:58:33.319Z,17.90
2023-04-27T13:01:01.820Z,17.90
2023-04-27T13:03:29.873Z,17.90
2023-04-27T13:05:57.917Z,17.90
2023-04-27T13:08:26.193Z,17.90
2023-04-27T13:10:55.750Z,17.90
2023-04-27T13:13:23.618Z,17.90
2023-04-27T13:15:51.500Z,17.90
2023-04-27T13:18:20.470Z,17.90
2023-04-27T13:20:49.780Z,17.90
2023-04-27T13:23:18.168Z,17.90
2023-04-27T13:25:46.211Z,17.80
2023-04-27T13:28:15.382Z,17.90
2023-04-27T13:30:43.286Z,17.90
2023-04-27T13:33:22.493Z,17.90
2023-04-27T13:35:51.796Z,17.90
2023-04-27T13:38:20.228Z,17.90
2023-04-27T13:40:48.141Z,17.80
2023-04-27T13:43:17.374Z,17.80
2023-04-27T13:45:45.355Z,17.80
2023-04-27T13:48:13.323Z,17.80
2023-04-27T13:50:41.347Z,17.80
2023-04-27T13:53:09.415Z,17.80
2023-04-27T13:55:37.419Z,17.80
2023-04-27T13:58:05.952Z,17.80
2023-04-27T14:00:35.460Z,17.80
2023-04-27T14:03:04.931Z,17.80
2023-04-27T14:05:33.135Z,17.80
2023-04-27T14:08:01.242Z,17.80
2023-04-27T14:10:29.258Z,17.80
2023-04-27T14:12:58.521Z,17.80
2023-04-27T14:15:26.482Z,17.80
2023-04-27T14:17:55.801Z,17.80
2023-04-27T14:20:24.616Z,17.80
2023-04-27T14:22:52.544Z,17.80
2023-04-27T14:25:20.469Z,17.80
2023-04-27T14:27:48.345Z,17.80
2023-04-27T14:30:16.419Z,17.80
2023-04-27T14:32:45.117Z,17.80
2023-04-27T14:35:14.395Z,17.80
2023-04-27T14:37:42.286Z,17.80
2023-04-27T14:40:11.584Z,17.80
2023-04-27T14:42:39.487Z,17.80
2023-04-27T14:45:09.189Z,17.80
2023-04-27T14:47:37.924Z,17.80
2023-04-27T14:50:07.557Z,17.80
2023-04-27T14:52:36.829Z,17.70
2023-04-27T14:55:05.272Z,17.70
2023-04-27T14:57:33.141Z,17.70
2023-04-27T15:00:01.483Z,17.70
2023-04-27T15:02:30.159Z,17.80
2023-04-27T15:04:59.681Z,17.70
2023-04-27T15:07:27.615Z,17.80
2023-04-27T15:09:56.917Z,17.80
2023-04-27T15:12:24.828Z,17.80
2023-04-27T15:14:53.779Z,17.80
2023-04-27T15:17:21.846Z,17.80
2023-04-27T15:19:51.511Z,17.80
2023-04-27T15:22:19.389Z,17.70
2023-04-27T15:24:47.229Z,17.80
2023-04-27T15:27:16.411Z,17.70
2023-04-27T15:29:44.263Z,17.70
2023-04-27T15:32:12.114Z,17.70
2023-04-27T15:34:42.591Z,17.70
2023-04-27T15:37:10.567Z,17.70
2023-04-27T15:39:38.574Z,17.70
2023-04-27T15:42:06.697Z,17.70
2023-04-27T15:44:35.901Z,17.70
2023-04-27T15:47:04.097Z,17.70
2023-04-27T15:49:34.436Z,17.70
2023-04-27T15:52:08.358Z,17.60
2023-04-27T15:54:36.230Z,17.70
2023-04-27T15:57:04.381Z,17.70
2023-04-27T15:59:32.458Z,17.70
2023-04-27T16:02:01.839Z,17.70
2023-04-27T16:04:29.788Z,17.70
2023-04-27T16:06:57.976Z,17.70
2023-04-27T16:09:25.992Z,17.70
2023-04-27T16:11:53.843Z,17.60
2023-04-27T16:14:21.713Z,17.70
2023-04-27T16:16:51.292Z,17.60
2023-04-27T16:19:20.675Z,17.60
2023-04-27T16:21:48.923Z,17.60
2023-04-27T16:24:16.779Z,17.60
2023-04-27T16:26:44.641Z,17.60
2023-04-27T16:29:12.803Z,17.60
2023-04-27T16:31:42.004Z,17.60
2023-04-27T16:34:09.923Z,17.60
2023-04-27T16:36:39.096Z,17.60
2023-04-27T16:39:06.999Z,17.60
2023-04-27T16:41:34.892Z,17.60
2023-04-27T16:44:02.791Z,17.60
2023-04-27T16:46:30.728Z,17.60
2023-04-27T16:48:58.639Z,17.60
2023-04-27T16:51:26.727Z,17.60
2023-04-27T16:53:55.874Z,17.60
2023-04-27T16:56:28.591Z,17.50
2023-04-27T16:58:56.737Z,17.50
2023-04-27T17:01:29.704Z,17.50
2023-04-27T17:03:58.550Z,17.50
2023-04-27T17:06:27.878Z,17.50
2023-04-27T17:08:57.529Z,17.50
2023-04-27T17:11:26.389Z,17.50
2023-04-27T17:13:54.359Z,17.50
2023-04-27T17:16:23.323Z,17.50
2023-04-27T17:18:51.279Z,17.50
2023-04-27T17:21:19.342Z,17.50
2023-04-27T17:23:47.461Z,17.50
2023-04-27T17:26:19.816Z,17.50
2023-04-27T17:28:47.853Z,17.50
2023-04-27T17:31:17.281Z,17.50
2023-04-27T17:33:45.909Z,17.50
2023-04-27T17:36:14.849Z,17.40
2023-04-27T17:38:42.705Z,17.40
2023-04-27T17:41:10.593Z,17.40
2023-04-27T17:43:39.816Z,17.40
2023-04-27T17:46:09.624Z,17.40
2023-04-27T17:48:37.957Z,17.40
2023-04-27T17:51:06.045Z,17.40
2023-04-27T17:53:33.928Z,17.40
2023-04-27T17:56:01.878Z,17.40
2023-04-27T17:58:29.721Z,17.40
2023-04-27T18:00:59.029Z,17.30
2023-04-27T18:03:27.708Z,17.40
2023-04-27T18:05:55.658Z,17.40
2023-04-27T18:08:23.602Z,17.30
2023-04-27T18:10:51.600Z,17.30
2023-04-27T18:13:19.630Z,17.30
2023-04-27T18:15:47.503Z,17.30
2023-04-27T18:18:22.548Z,17.30
2023-04-27T18:20:52.515Z,17.30
2023-04-27T18:23:20.596Z,17.30
2023-04-27T18:25:48.630Z,17.30
2023-04-27T18:28:16.487Z,17.30
2023-04-27T18:30:44.547Z,17.30
2023-04-27T18:33:12.441Z,17.20
2023-04-27T18:35:41.654Z,17.20
2023-04-27T18:38:09.544Z,17.20
2023-04-27T18:40:38.008Z,17.20
2023-04-27T18:43:06.163Z,17.20
2023-04-27T18:45:34.276Z,17.10
2023-04-27T18:48:02.728Z,17.10
2023-04-27T18:50:30.633Z,17.10
2023-04-27T18:53:00.579Z,17.10
2023-04-27T18:55:28.647Z,17.00
2023-04-27T18:57:56.591Z,17.10
2023-04-27T19:00:24.796Z,17.00
2023-04-27T19:02:52.962Z,17.00
2023-04-27T19:05:21.103Z,17.00
2023-04-27T19:07:48.975Z,17.00
2023-04-27T19:10:18.411Z,17.00
2023-04-27T19:12:46.287Z,16.90
2023-04-27T19:15:15.360Z,16.90
2023-04-27T19:17:43.310Z,16.90
2023-04-27T19:20:12.203Z,16.90
2023-04-27T19:22:40.405Z,16.90
2023-04-27T19:25:10.629Z,16.80
2023-04-27T19:27:39.930Z,16.80
2023-04-27T19:30:09.925Z,16.80
2023-04-27T19:32:38.311Z,16.80
2023-04-27T19:35:11.690Z,16.80
2023-04-27T19:37:39.841Z,16.70
2023-04-27T19:40:09.753Z,16.70
2023-04-27T19:42:39.198Z,16.70
2023-04-27T19:45:08.761Z,16.70
2023-04-27T19:47:36.886Z,16.60
2023-04-27T19:50:05.896Z,16.60
2023-04-27T19:52:33.848Z,16.60
2023-04-27T19:55:01.779Z,16.60
2023-04-27T19:57:30.066Z,16.50
2023-04-27T19:59:59.309Z,16.50
2023-04-27T20:02:27.274Z,16.50
2023-04-27T20:04:55.753Z,16.50
2023-04-27T20:07:24.275Z,16.40
2023-04-27T20:09:52.159Z,16.40
2023-04-27T20:12:43.493Z,16.40
2023-04-27T20:15:11.837Z,16.30
2023-04-27T20:17:39.872Z,16.30
2023-04-27T20:20:10.528Z,16.30
2023-04-27T20:22:39.159Z,16.30
2023-04-27T20:25:08.394Z,16.20
2023-04-27T20:27:36.431Z,16.30
2023-04-27T20:30:05.051Z,16.20
2023-04-27T20:32:34.297Z,16.20
2023-04-27T20:35:04.746Z,16.20
2023-04-27T20:37:33.006Z,16.20
2023-04-27T20:40:01.920Z,16.10
2023-04-27T20:42:30.202Z,16.10
2023-04-27T20:44:58.437Z,16.10
2023-04-27T20:47:26.555Z,16.10
2023-04-27T20:49:55.876Z,16.10
2023-04-27T20:52:23.801Z,16.00
2023-04-27T20:54:52.211Z,16.00
2023-04-27T20:57:20.194Z,16.00
2023-04-27T20:59:48.103Z,16.00
2023-04-27T21:02:16.385Z,16.00
2023-04-27T21:04:44.505Z,15.90
2023-04-27T21:07:14.401Z,15.90
2023-04-27T21:09:42.260Z,15.90
2023-04-27T21:12:10.303Z,15.90
2023-04-27T21:14:38.203Z,15.80
2023-04-27T21:17:06.199Z,15.80
2023-04-27T21:19:34.079Z,15.80
2023-04-27T21:22:02.039Z,15.80
2023-04-27T21:24:31.278Z,15.80
2023-04-27T21:26:59.585Z,15.70
2023-04-27T21:29:27.835Z,15.70
2023-04-27T21:31:55.913Z,15.70
2023-04-27T21:34:23.876Z,15.70
2023-04-27T21:36:51.779Z,15.60
2023-04-27T21:39:19.672Z,15.60
2023-04-27T21:41:48.846Z,15.60
2023-04-27T21:44:16.965Z,15.60
2023-04-27T21:46:45.014Z,15.60
2023-04-27T21:49:12.918Z,15.60
2023-04-27T21:51:40.750Z,15.50
2023-04-27T21:54:08.673Z,15.50
2023-04-27T21:56:37.563Z,15.50
2023-04-27T21:59:07.957Z,15.40
2023-04-27T22:01:36.584Z,15.40
2023-04-27T22:04:06.009Z,15.40
2023-04-27T22:06:34.003Z,15.40
2023-04-27T22:09:02.026Z,15.40
2023-04-27T22:11:29.984Z,15.30
2023-04-27T22:13:57.857Z,15.30
2023-04-27T22:16:30.054Z,15.30
2023-04-27T22:18:58.447Z,15.30
2023-04-27T22:21:27.276Z,15.30
2023-04-27T22:23:55.311Z,15.20
2023-04-27T22:26:23.343Z,15.20
2023-04-27T22:28:51.367Z,15.20
2023-04-27T22:31:19.279Z,15.20
2023-04-27T22:33:48.558Z,15.10
2023-04-27T22:36:16.404Z,15.10
2023-04-27T22:38:44.404Z,15.10
2023-04-27T22:41:12.350Z,15.10
2023-04-27T22:43:40.311Z,15.10
2023-04-27T22:46:08.151Z,15.10
2023-04-27T22:48:36.906Z,15.00
2023-04-27T22:51:11.068Z,15.00
2023-04-27T22:53:39.106Z,15.00
2023-04-27T22:56:07.864Z,15.00
2023-04-27T22:58:36.544Z,14.90
2023-04-27T23:01:04.976Z,14.90
2023-04-27T23:03:32.971Z,14.90
2023-04-27T23:06:01.097Z,14.90
2023-04-27T23:08:30.284Z,14.90
2023-04-27T23:10:58.261Z,14.80
2023-04-27T23:13:26.751Z,14.80
2023-04-27T23:15:55.201Z,14.80
2023-04-27T23:18:23.214Z,14.80
2023-04-27T23:20:54.728Z,14.80
2023-04-27T23:23:22.818Z,14.80
2023-04-27T23:25:51.994Z,14.70
2023-04-27T23:28:20.735Z,14.70
2023-04-27T23:30:54.804Z,14.70
2023-04-27T23:33:24.125Z,14.70
2023-04-27T23:35:52.842Z,14.70
2023-04-27T23:38:21.191Z,14.60
2023-04-27T23:40:49.072Z,14.60
2023-04-27T23:43:18.504Z,14.60
2023-04-27T23:45:51.634Z,14.50
2023-04-27T23:48:20.505Z,14.60
2023-04-27T23:50:48.359Z,14.50
2023-04-27T23:53:16.452Z,14.50
2023-04-27T23:55:44.312Z,14.50
2023-04-27T23:58:12.149Z,14.50
